createdAt,value
2023-04-10T00:00:10.736Z,7.96
2023-04-10T00:02:39.354Z,8.02
2023-04-10T00:05:09.576Z,8.06
2023-04-10T00:07:38.276Z,8.09
2023-04-10T00:10:07.374Z,8.04
2023-04-10T00:12:37.674Z,7.96
2023-04-10T00:15:04.572Z,7.87
2023-04-10T00:17:33.596Z,7.79
2023-04-10T00:20:04.035Z,7.76
2023-04-10T00:22:30.557Z,7.77
2023-04-10T00:24:57.009Z,7.75
2023-04-10T00:27:26.040Z,7.78
2023-04-10T00:29:52.466Z,7.76
2023-04-10T00:32:18.929Z,7.75
2023-04-10T00:34:47.768Z,7.76
2023-04-10T00:37:17.517Z,7.74
2023-04-10T00:39:46.443Z,7.74
2023-04-10T00:42:15.026Z,7.76
2023-04-10T00:44:46.297Z,7.78
2023-04-10T00:47:14.159Z,7.78
2023-04-10T00:49:41.723Z,7.79
2023-04-10T00:52:11.874Z,7.77
2023-04-10T00:54:38.483Z,7.79
2023-04-10T00:57:05.109Z,7.77
2023-04-10T00:59:31.986Z,7.77
2023-04-10T01:01:59.365Z,7.74
2023-04-10T01:04:29.124Z,7.75
2023-04-10T01:07:10.612Z,7.73
2023-04-10T01:10:05.445Z,7.75
2023-04-10T01:12:43.760Z,7.76
2023-04-10T01:15:22.712Z,7.76
2023-04-10T01:18:00.518Z,7.82
2023-04-10T01:20:31.528Z,7.78
2023-04-10T01:23:13.978Z,7.73
2023-04-10T01:25:43.573Z,7.70
2023-04-10T01:28:19.159Z,7.64
2023-04-10T01:30:52.232Z,7.60
2023-04-10T01:33:21.299Z,7.51
2023-04-10T01:36:00.946Z,7.47
2023-04-10T01:38:29.410Z,7.41
2023-04-10T01:41:04.433Z,7.40
2023-04-10T01:43:36.229Z,7.37
2023-04-10T01:46:05.822Z,7.36
2023-04-10T01:48:32.552Z,7.36
2023-04-10T01:51:05.600Z,7.32
2023-04-10T01:53:32.645Z,7.34
2023-04-10T01:55:59.912Z,7.34
2023-04-10T01:58:26.500Z,7.35
2023-04-10T02:00:52.999Z,7.38
2023-04-10T02:03:21.975Z,7.43
2023-04-10T02:06:16.289Z,7.48
2023-04-10T02:08:53.008Z,7.55
2023-04-10T02:11:36.255Z,7.56
2023-04-10T02:14:08.039Z,7.61
2023-04-10T02:16:39.314Z,7.68
2023-04-10T02:19:12.070Z,7.75
2023-04-10T02:21:40.047Z,7.83
2023-04-10T02:24:08.950Z,7.92
2023-04-10T02:26:49.476Z,8.08
2023-04-10T02:29:20.949Z,8.11
2023-04-10T02:31:47.654Z,8.13
2023-04-10T02:34:16.603Z,8.13
2023-04-10T02:36:43.082Z,8.10
2023-04-10T02:39:11.938Z,8.09
2023-04-10T02:41:38.395Z,8.02
2023-04-10T02:44:07.300Z,8.01
2023-04-10T02:46:38.423Z,7.98
2023-04-10T02:49:04.924Z,7.97
2023-04-10T02:51:35.406Z,7.96
2023-04-10T02:54:04.221Z,7.96
2023-04-10T02:56:33.100Z,7.88
2023-04-10T02:58:59.578Z,7.84
2023-04-10T03:01:31.206Z,7.85
2023-04-10T03:04:00.310Z,7.79
2023-04-10T03:06:27.425Z,7.71
2023-04-10T03:08:53.989Z,7.76
2023-04-10T03:11:20.484Z,7.72
2023-04-10T03:13:49.754Z,7.74
2023-04-10T03:16:18.762Z,7.74
2023-04-10T03:18:47.824Z,7.68
2023-04-10T03:21:16.805Z,7.59
2023-04-10T03:23:43.270Z,7.43
2023-04-10T03:26:12.246Z,7.31
2023-04-10T03:28:41.444Z,7.21
2023-04-10T03:31:07.999Z,7.07
2023-04-10T03:33:36.765Z,6.98
2023-04-10T03:36:04.616Z,6.87
2023-04-10T03:38:31.151Z,6.79
2023-04-10T03:40:57.687Z,6.70
2023-04-10T03:43:31.684Z,6.66
2023-04-10T03:45:58.438Z,6.63
2023-04-10T03:48:28.153Z,6.60
2023-04-10T03:50:57.292Z,6.55
2023-04-10T03:53:24.233Z,6.57
2023-04-10T03:55:53.084Z,6.55
2023-04-10T03:58:19.509Z,6.58
2023-04-10T04:00:51.005Z,6.61
2023-04-10T04:03:17.612Z,6.63
2023-04-10T04:05:44.276Z,6.65
2023-04-10T04:08:14.061Z,6.66
2023-04-10T04:10:40.595Z,6.65
2023-04-10T04:13:09.481Z,6.68
2023-04-10T04:15:36.118Z,6.69
2023-04-10T04:18:07.493Z,6.70
2023-04-10T04:20:36.512Z,6.73
2023-04-10T04:23:03.047Z,6.77
2023-04-10T04:25:29.590Z,6.79
2023-04-10T04:27:58.531Z,6.81
2023-04-10T04:30:25.302Z,6.79
2023-04-10T04:32:54.112Z,6.80
2023-04-10T04:35:20.902Z,6.79
2023-04-10T04:37:47.380Z,6.79
2023-04-10T04:40:18.436Z,6.77
2023-04-10T04:42:44.914Z,6.75
2023-04-10T04:45:14.249Z,6.76
2023-04-10T04:47:42.963Z,6.79
2023-04-10T04:50:12.144Z,6.83
2023-04-10T04:52:38.808Z,6.86
2023-04-10T04:55:05.784Z,6.91
2023-04-10T04:57:35.561Z,6.95
2023-04-10T05:00:04.649Z,7.03
2023-04-10T05:02:31.176Z,7.07
2023-04-10T05:04:57.966Z,7.08
2023-04-10T05:07:27.036Z,7.08
2023-04-10T05:09:56.138Z,7.06
2023-04-10T05:12:22.605Z,7.09
2023-04-10T05:14:53.944Z,7.13
2023-04-10T05:17:22.933Z,7.18
2023-04-10T05:19:49.425Z,7.24
2023-04-10T05:22:18.539Z,7.27
2023-04-10T05:24:47.799Z,7.28
2023-04-10T05:27:14.289Z,7.32
2023-04-10T05:29:43.241Z,7.36
2023-04-10T05:32:12.387Z,7.38
2023-04-10T05:34:38.860Z,7.43
2023-04-10T05:37:05.302Z,7.48
2023-04-10T05:39:34.504Z,7.54
2023-04-10T05:42:01.726Z,7.61
2023-04-10T05:44:28.268Z,7.69
2023-04-10T05:46:54.793Z,7.76
2023-04-10T05:49:23.369Z,7.83
2023-04-10T05:51:50.525Z,7.89
2023-04-10T05:54:21.722Z,7.99
2023-04-10T05:56:48.203Z,8.10
2023-04-10T05:59:14.712Z,8.15
2023-04-10T06:01:49.141Z,8.20
2023-04-10T06:04:18.202Z,8.25
2023-04-10T06:06:44.881Z,8.32
2023-04-10T06:09:11.375Z,8.41
2023-04-10T06:11:37.878Z,8.45
2023-04-10T06:14:04.474Z,8.48
2023-04-10T06:16:33.365Z,8.51
2023-04-10T06:19:02.178Z,8.52
2023-04-10T06:21:28.659Z,8.55
2023-04-10T06:23:57.751Z,8.60
2023-04-10T06:26:27.169Z,8.65
2023-04-10T06:28:53.846Z,8.74
2023-04-10T06:31:22.124Z,8.77
2023-04-10T06:33:49.659Z,8.77
2023-04-10T06:36:21.649Z,8.80
2023-04-10T06:38:50.254Z,8.85
2023-04-10T06:41:16.744Z,8.91
2023-04-10T06:43:43.229Z,8.94
2023-04-10T06:46:09.800Z,9.00
2023-04-10T06:48:38.669Z,9.07
2023-04-10T06:51:05.465Z,9.13
2023-04-10T06:53:31.946Z,9.19
2023-04-10T06:56:00.867Z,9.23
2023-04-10T06:58:32.407Z,9.30
2023-04-10T07:01:01.104Z,9.34
2023-04-10T07:03:27.713Z,9.40
2023-04-10T07:05:56.970Z,9.49
2023-04-10T07:08:26.549Z,9.56
2023-04-10T07:10:56.601Z,9.63
2023-04-10T07:13:24.839Z,9.70
2023-04-10T07:15:53.681Z,9.79
2023-04-10T07:18:22.791Z,9.89
2023-04-10T07:20:54.225Z,10.04
2023-04-10T07:23:21.073Z,10.13
2023-04-10T07:25:47.658Z,10.24
2023-04-10T07:28:16.573Z,10.42
2023-04-10T07:30:43.116Z,10.52
2023-04-10T07:33:12.266Z,10.63
2023-04-10T07:35:39.036Z,10.64
2023-04-10T07:38:05.790Z,10.73
2023-04-10T07:40:32.267Z,10.82
2023-04-10T07:43:01.046Z,11.11
2023-04-10T07:45:28.527Z,11.31
2023-04-10T07:47:59.390Z,11.57
2023-04-10T07:50:25.987Z,11.76
2023-04-10T07:52:52.690Z,12.09
2023-04-10T07:55:21.526Z,12.51
2023-04-10T07:57:52.279Z,12.76
2023-04-10T08:00:18.912Z,13.17
2023-04-10T08:02:45.542Z,13.46
2023-04-10T08:05:12.170Z,13.55
2023-04-10T08:07:38.633Z,13.18
2023-04-10T08:10:07.951Z,12.61
2023-04-10T08:12:34.660Z,12.26
2023-04-10T08:15:03.247Z,11.96
2023-04-10T08:17:32.003Z,11.80
2023-04-10T08:19:58.600Z,11.65
2023-04-10T08:22:25.132Z,11.65
2023-04-10T08:24:54.048Z,11.70
2023-04-10T08:27:22.971Z,11.80
2023-04-10T08:29:51.724Z,12.03
2023-04-10T08:32:18.217Z,12.22
2023-04-10T08:34:44.694Z,12.44
2023-04-10T08:37:15.614Z,12.64
2023-04-10T08:39:44.461Z,12.61
2023-04-10T08:42:10.930Z,12.58
2023-04-10T08:44:42.198Z,12.46
2023-04-10T08:47:13.324Z,12.38
2023-04-10T08:50:03.951Z,12.28
2023-04-10T08:52:40.851Z,12.22
2023-04-10T08:55:09.375Z,12.20
2023-04-10T08:57:42.831Z,12.10
2023-04-10T09:00:23.447Z,11.97
2023-04-10T09:02:55.143Z,11.94
2023-04-10T09:05:27.318Z,11.93
2023-04-10T09:07:56.330Z,11.97
2023-04-10T09:10:23.462Z,11.94
2023-04-10T09:12:54.817Z,12.01
2023-04-10T09:15:23.830Z,12.05
2023-04-10T09:18:02.458Z,12.05
2023-04-10T09:20:30.871Z,12.05
2023-04-10T09:22:58.345Z,12.02
2023-04-10T09:25:39.136Z,12.01
2023-04-10T09:28:07.498Z,12.01
2023-04-10T09:30:36.778Z,11.95
2023-04-10T09:33:20.627Z,11.94
2023-04-10T09:35:49.742Z,11.94
2023-04-10T09:38:21.684Z,11.98
2023-04-10T09:40:54.774Z,12.01
2023-04-10T09:43:26.332Z,12.03
2023-04-10T09:45:58.799Z,12.01
2023-04-10T09:48:27.776Z,12.03
2023-04-10T09:50:54.294Z,12.06
2023-04-10T09:53:23.604Z,12.09
2023-04-10T09:55:53.275Z,12.14
2023-04-10T09:58:24.054Z,12.19
2023-04-10T10:00:50.620Z,12.26
2023-04-10T10:03:23.065Z,12.32
2023-04-10T10:05:54.387Z,12.42
2023-04-10T10:08:24.608Z,12.48
2023-04-10T10:10:54.291Z,12.53
2023-04-10T10:13:49.692Z,12.54
2023-04-10T10:16:25.250Z,12.62
2023-04-10T10:19:01.957Z,12.73
2023-04-10T10:21:30.137Z,12.85
2023-04-10T10:23:59.762Z,12.88
2023-04-10T10:26:28.655Z,12.91
2023-04-10T10:28:56.974Z,12.98
2023-04-10T10:31:25.982Z,13.00
2023-04-10T10:33:52.977Z,13.06
2023-04-10T10:36:20.638Z,13.13
2023-04-10T10:39:24.625Z,13.19
2023-04-10T10:42:06.338Z,13.26
2023-04-10T10:44:46.592Z,13.42
2023-04-10T10:47:19.721Z,13.52
2023-04-10T10:50:03.715Z,13.59
2023-04-10T10:52:40.587Z,13.69
2023-04-10T10:55:24.877Z,13.77
2023-04-10T10:57:56.112Z,13.78
2023-04-10T11:00:24.532Z,13.88
2023-04-10T11:03:09.265Z,14.04
2023-04-10T11:06:02.782Z,14.26
2023-04-10T11:08:40.596Z,14.52
2023-04-10T11:11:10.787Z,14.74
2023-04-10T11:13:39.844Z,14.96
2023-04-10T11:16:08.037Z,15.01
2023-04-10T11:18:51.251Z,15.23
2023-04-10T11:21:26.669Z,15.17
2023-04-10T11:23:54.293Z,15.24
2023-04-10T11:26:35.990Z,15.26
2023-04-10T11:29:07.312Z,15.17
2023-04-10T11:31:36.321Z,15.22
2023-04-10T11:34:10.612Z,15.14
2023-04-10T11:36:44.743Z,15.30
2023-04-10T11:39:17.836Z,15.06
2023-04-10T11:41:57.511Z,14.97
2023-04-10T11:44:40.883Z,14.98
2023-04-10T11:47:12.274Z,15.10
2023-04-10T11:49:39.132Z,15.25
2023-04-10T11:52:05.587Z,15.34
2023-04-10T11:54:32.534Z,15.22
2023-04-10T11:57:02.585Z,15.15
2023-04-10T11:59:32.969Z,15.07
2023-04-10T12:02:14.736Z,15.17
2023-04-10T12:04:42.844Z,15.24
2023-04-10T12:07:10.385Z,15.25
2023-04-10T12:09:39.451Z,15.40
2023-04-10T12:12:07.541Z,15.51
2023-04-10T12:14:38.566Z,15.49
2023-04-10T12:17:08.228Z,15.48
2023-04-10T12:19:35.652Z,15.53
2023-04-10T12:22:04.978Z,15.59
2023-04-10T12:24:40.653Z,15.61
2023-04-10T12:27:07.142Z,15.53
2023-04-10T12:29:33.602Z,15.49
2023-04-10T12:32:08.990Z,15.49
2023-04-10T12:34:36.701Z,15.42
2023-04-10T12:37:06.122Z,15.36
2023-04-10T12:39:33.119Z,15.39
2023-04-10T12:42:19.346Z,15.42
2023-04-10T12:45:00.346Z,15.47
2023-04-10T12:47:28.750Z,15.47
2023-04-10T12:50:15.769Z,15.39
2023-04-10T12:53:02.404Z,15.36
2023-04-10T12:55:29.018Z,15.31
2023-04-10T12:57:56.916Z,15.26
2023-04-10T13:00:28.192Z,15.19
2023-04-10T13:02:55.001Z,15.14
2023-04-10T13:05:25.224Z,14.99
2023-04-10T13:07:52.896Z,14.95
2023-04-10T13:10:22.092Z,14.84
2023-04-10T13:12:50.758Z,14.89
2023-04-10T13:15:17.752Z,14.85
2023-04-10T13:17:48.822Z,14.86
2023-04-10T13:20:18.567Z,14.87
2023-04-10T13:22:45.417Z,14.90
2023-04-10T13:25:11.923Z,14.89
2023-04-10T13:27:38.457Z,14.85
2023-04-10T13:30:05.916Z,14.85
2023-04-10T13:32:34.915Z,14.84
2023-04-10T13:35:03.973Z,14.88
2023-04-10T13:37:32.912Z,14.99
2023-04-10T13:39:59.451Z,15.04
2023-04-10T13:42:28.237Z,14.99
2023-04-10T13:44:54.692Z,14.86
2023-04-10T13:47:21.162Z,14.68
2023-04-10T13:49:47.680Z,14.68
2023-04-10T13:52:14.148Z,14.66
2023-04-10T13:54:40.889Z,14.57
2023-04-10T13:57:07.386Z,14.42
2023-04-10T13:59:33.850Z,14.28
2023-04-10T14:02:00.448Z,14.29
2023-04-10T14:04:27.021Z,14.39
2023-04-10T14:07:00.450Z,14.46
2023-04-10T14:09:27.277Z,14.52
2023-04-10T14:11:53.820Z,14.56
2023-04-10T14:14:24.185Z,14.58
2023-04-10T14:16:51.422Z,14.61
2023-04-10T14:19:20.530Z,14.60
2023-04-10T14:21:49.313Z,14.52
2023-04-10T14:24:15.897Z,14.39
2023-04-10T14:26:42.406Z,14.25
2023-04-10T14:29:09.134Z,14.09
2023-04-10T14:31:39.124Z,13.89
2023-04-10T14:34:10.765Z,13.68
2023-04-10T14:36:39.556Z,13.49
2023-04-10T14:39:06.230Z,13.40
2023-04-10T14:41:32.733Z,13.27
2023-04-10T14:43:59.277Z,13.14
2023-04-10T14:46:25.989Z,13.04
2023-04-10T14:48:55.164Z,12.99
2023-04-10T14:51:21.977Z,12.89
2023-04-10T14:53:48.560Z,12.87
2023-04-10T14:56:15.895Z,12.89
2023-04-10T14:58:43.298Z,12.84
2023-04-10T15:01:13.263Z,12.82
2023-04-10T15:03:40.238Z,12.72
2023-04-10T15:06:09.931Z,12.74
2023-04-10T15:08:36.470Z,12.74
2023-04-10T15:11:07.633Z,12.71
2023-04-10T15:13:34.125Z,12.65
2023-04-10T15:16:02.740Z,12.55
2023-04-10T15:18:31.695Z,12.50
2023-04-10T15:21:00.624Z,12.43
2023-04-10T15:23:29.392Z,12.40
2023-04-10T15:25:55.878Z,12.30
2023-04-10T15:28:22.523Z,12.20
2023-04-10T15:30:50.106Z,12.14
2023-04-10T15:33:21.652Z,12.14
2023-04-10T15:35:51.479Z,12.06
2023-04-10T15:38:18.188Z,12.01
2023-04-10T15:40:44.685Z,11.94
2023-04-10T15:43:13.721Z,11.95
2023-04-10T15:45:40.280Z,11.93
2023-04-10T15:48:09.442Z,11.93
2023-04-10T15:50:44.774Z,11.90
2023-04-10T15:53:11.406Z,11.87
2023-04-10T15:55:43.525Z,11.89
2023-04-10T15:58:10.006Z,11.89
2023-04-10T16:00:36.469Z,11.92
2023-04-10T16:03:05.983Z,11.91
2023-04-10T16:05:34.941Z,11.91
2023-04-10T16:08:02.673Z,11.89
2023-04-10T16:10:29.180Z,11.83
2023-04-10T16:13:04.276Z,11.81
2023-04-10T16:15:36.430Z,11.79
2023-04-10T16:18:07.643Z,11.75
2023-04-10T16:20:34.782Z,11.71
2023-04-10T16:23:03.789Z,11.66
2023-04-10T16:25:32.646Z,11.64
2023-04-10T16:28:06.466Z,11.57
2023-04-10T16:30:33.255Z,11.55
2023-04-10T16:32:59.772Z,11.55
2023-04-10T16:35:28.612Z,11.56
2023-04-10T16:37:55.165Z,11.54
2023-04-10T16:40:27.619Z,11.49
2023-04-10T16:42:54.110Z,11.47
2023-04-10T16:45:20.614Z,11.46
2023-04-10T16:47:49.669Z,11.46
2023-04-10T16:50:18.588Z,11.46
2023-04-10T16:52:45.226Z,11.43
2023-04-10T16:55:11.777Z,11.40
2023-04-10T16:57:38.410Z,11.37
2023-04-10T17:00:05.778Z,11.36
2023-04-10T17:02:35.211Z,11.33
2023-04-10T17:05:03.958Z,11.31
2023-04-10T17:07:30.485Z,11.28
2023-04-10T17:09:59.531Z,11.26
2023-04-10T17:12:26.519Z,11.22
2023-04-10T17:14:56.175Z,11.19
2023-04-10T17:17:22.880Z,11.17
2023-04-10T17:19:49.469Z,11.15
2023-04-10T17:22:20.553Z,11.11
2023-04-10T17:24:47.006Z,11.10
2023-04-10T17:27:13.493Z,11.05
2023-04-10T17:29:40.402Z,11.01
2023-04-10T17:32:08.510Z,10.99
2023-04-10T17:34:37.379Z,10.98
2023-04-10T17:37:03.842Z,10.95
2023-04-10T17:39:30.330Z,10.93
2023-04-10T17:41:57.206Z,10.91
2023-04-10T17:44:23.764Z,10.92
2023-04-10T17:46:54.077Z,10.89
2023-04-10T17:49:23.742Z,10.86
2023-04-10T17:51:52.878Z,10.85
2023-04-10T17:54:19.415Z,10.80
2023-04-10T17:56:48.054Z,10.79
2023-04-10T17:59:16.987Z,10.76
2023-04-10T18:01:43.665Z,10.71
2023-04-10T18:04:10.243Z,10.69
2023-04-10T18:06:36.877Z,10.67
2023-04-10T18:09:03.615Z,10.65
2023-04-10T18:11:32.461Z,10.64
2023-04-10T18:13:59.212Z,10.64
2023-04-10T18:16:25.825Z,10.67
2023-04-10T18:18:54.997Z,10.64
2023-04-10T18:21:21.681Z,10.63
2023-04-10T18:23:48.237Z,10.63
2023-04-10T18:26:20.816Z,10.67
2023-04-10T18:28:52.152Z,10.65
2023-04-10T18:31:19.069Z,10.65
2023-04-10T18:33:48.598Z,10.66
2023-04-10T18:36:24.110Z,10.65
2023-04-10T18:38:51.591Z,10.65
2023-04-10T18:41:20.786Z,10.64
2023-04-10T18:43:57.419Z,10.64
2023-04-10T18:46:33.243Z,10.61
2023-04-10T18:49:03.179Z,10.59
2023-04-10T18:51:29.885Z,10.57
2023-04-10T18:53:56.660Z,10.54
2023-04-10T18:56:25.863Z,10.53
2023-04-10T18:58:52.342Z,10.54
2023-04-10T19:01:19.040Z,10.57
2023-04-10T19:03:48.426Z,10.54
2023-04-10T19:06:17.710Z,10.53
2023-04-10T19:08:48.780Z,10.56
2023-04-10T19:11:15.270Z,10.59
2023-04-10T19:13:46.624Z,10.60
2023-04-10T19:16:14.617Z,10.62
2023-04-10T19:18:41.236Z,10.63
2023-04-10T19:21:10.278Z,10.63
2023-04-10T19:23:37.461Z,10.65
2023-04-10T19:26:07.185Z,10.63
2023-04-10T19:28:34.785Z,10.65
2023-04-10T19:31:01.383Z,10.67
2023-04-10T19:33:28.028Z,10.63
2023-04-10T19:35:54.638Z,10.64
2023-04-10T19:38:21.308Z,10.57
2023-04-10T19:40:50.063Z,10.54
2023-04-10T19:43:16.960Z,10.54
2023-04-10T19:45:43.563Z,10.55
2023-04-10T19:48:10.139Z,10.55
2023-04-10T19:50:36.620Z,10.58
2023-04-10T19:53:03.644Z,10.57
2023-04-10T19:55:31.587Z,10.53
2023-04-10T19:57:58.085Z,10.50
2023-04-10T20:00:24.634Z,10.51
2023-04-10T20:02:51.299Z,10.50
2023-04-10T20:05:20.526Z,10.47
2023-04-10T20:07:49.449Z,10.47
2023-04-10T20:10:18.523Z,10.49
2023-04-10T20:12:45.113Z,10.49
2023-04-10T20:15:12.466Z,10.47
2023-04-10T20:17:39.104Z,10.44
2023-04-10T20:20:12.226Z,10.43
2023-04-10T20:22:38.723Z,10.44
2023-04-10T20:25:05.636Z,10.44
2023-04-10T20:27:32.115Z,10.43
2023-04-10T20:29:58.584Z,10.44
2023-04-10T20:32:27.660Z,10.42
2023-04-10T20:34:54.472Z,10.42
2023-04-10T20:37:21.991Z,10.41
2023-04-10T20:39:49.125Z,10.40
2023-04-10T20:42:17.043Z,10.44
2023-04-10T20:44:46.130Z,10.45
2023-04-10T20:47:13.253Z,10.44
2023-04-10T20:49:42.050Z,10.45
2023-04-10T20:52:08.497Z,10.44
2023-04-10T20:54:34.992Z,10.45
2023-04-10T20:57:01.931Z,10.45
2023-04-10T20:59:29.230Z,10.45
2023-04-10T21:01:58.630Z,10.41
2023-04-10T21:04:27.587Z,10.40
2023-04-10T21:06:54.083Z,10.38
2023-04-10T21:09:20.843Z,10.35
2023-04-10T21:11:49.802Z,10.28
2023-04-10T21:14:18.671Z,10.25
2023-04-10T21:16:45.973Z,10.20
2023-04-10T21:19:13.434Z,10.17
2023-04-10T21:21:42.416Z,10.20
2023-04-10T21:24:08.908Z,10.19
2023-04-10T21:26:35.632Z,10.19
2023-04-10T21:29:02.140Z,10.17
2023-04-10T21:31:28.763Z,10.17
2023-04-10T21:33:57.909Z,10.17
2023-04-10T21:36:24.375Z,10.18
2023-04-10T21:38:50.871Z,10.20
2023-04-10T21:41:17.711Z,10.20
2023-04-10T21:43:46.601Z,10.20
2023-04-10T21:46:15.362Z,10.16
2023-04-10T21:48:42.407Z,10.14
2023-04-10T21:51:08.962Z,10.16
2023-04-10T21:53:37.571Z,10.15
2023-04-10T21:56:06.785Z,10.19
2023-04-10T21:58:33.323Z,10.21
2023-04-10T22:01:02.456Z,10.21
2023-04-10T22:03:29.132Z,10.20
2023-04-10T22:05:55.839Z,10.21
2023-04-10T22:08:22.391Z,10.21
2023-04-10T22:10:49.523Z,10.21
2023-04-10T22:13:29.719Z,10.22
2023-04-10T22:16:01.772Z,10.23
2023-04-10T22:18:28.353Z,10.21
2023-04-10T22:20:57.502Z,10.20
2023-04-10T22:23:26.694Z,10.20
2023-04-10T22:25:57.986Z,10.20
2023-04-10T22:28:24.553Z,10.18
2023-04-10T22:30:53.365Z,10.08
2023-04-10T22:33:22.181Z,9.80
2023-04-10T22:35:48.850Z,9.50
2023-04-10T22:38:15.561Z,9.33
2023-04-10T22:40:42.374Z,9.13
2023-04-10T22:43:11.319Z,8.99
2023-04-10T22:45:41.802Z,8.86
2023-04-10T22:48:08.437Z,8.77
2023-04-10T22:50:34.993Z,8.72
2023-04-10T22:53:01.712Z,8.69
2023-04-10T22:55:28.404Z,8.65
2023-04-10T22:57:57.232Z,8.59
2023-04-10T23:00:23.707Z,8.56
2023-04-10T23:02:50.257Z,8.53
2023-04-10T23:05:19.078Z,8.45
2023-04-10T23:07:48.078Z,8.36
2023-04-10T23:10:16.892Z,8.22
2023-04-10T23:12:43.397Z,8.14
2023-04-10T23:15:12.767Z,8.04
2023-04-10T23:17:39.340Z,7.96
2023-04-10T23:20:06.527Z,7.91
2023-04-10T23:22:35.710Z,7.84
2023-04-10T23:25:02.219Z,7.80
2023-04-10T23:27:31.448Z,7.75
2023-04-10T23:29:57.864Z,7.71
2023-04-10T23:32:24.391Z,7.67
2023-04-10T23:34:50.883Z,7.61
2023-04-10T23:37:17.346Z,7.57
2023-04-10T23:39:46.324Z,7.57
2023-04-10T23:42:12.817Z,7.63
2023-04-10T23:44:42.396Z,7.61
2023-04-10T23:47:11.203Z,7.57
2023-04-10T23:49:37.695Z,7.55
2023-04-10T23:52:04.271Z,7.51
2023-04-10T23:54:31.093Z,7.48
2023-04-10T23:56:57.557Z,7.46
2023-04-10T23:59:24.431Z,7.47
